Time;durP1;ratioP1;P1;durP2;ratioP2;P2;SDS_P1;SDS_P2;PMS_P1;PMS_P2;Temp;Humidity;BMP_temperature;BMP_pressure;BME280_temperature;BME280_humidity;BME280_pressure;Samples;Min_cycle;Max_cycle;Signal;HPM_P1;HPM_P2
2022/01/14 00:02:37;;;;;;;4.82;1.55;;;27.40;60.90;;;;;;4996575;28;20045;-77
2022/01/14 00:05:46;;;;;;;4.93;2.30;;;27.40;61.00;;;;;;5003671;28;20042;-71
2022/01/14 00:08:57;;;;;;;4.05;1.85;;;27.40;61.00;;;;;;4995237;28;20096;-71
2022/01/14 00:12:15;;;;;;;4.68;1.90;;;27.30;61.00;;;;;;4992191;28;20029;-70
2022/01/14 00:15:28;;;;;;;7.63;2.20;;;27.30;61.00;;;;;;4996836;28;20018;-71
2022/01/14 00:18:34;;;;;;;7.53;2.25;;;27.30;61.00;;;;;;5002621;28;20440;-71
2022/01/14 00:21:42;;;;;;;6.38;2.88;;;27.30;61.10;;;;;;4994312;28;20038;-71
2022/01/14 00:34:51;;;;;;;10.02;2.22;;;27.20;61.10;;;;;;4993868;28;20176;-72
2022/01/14 00:37:57;;;;;;;4.07;2.00;;;27.20;61.20;;;;;;4995548;28;20077;-75
2022/01/14 00:41:03;;;;;;;5.97;2.05;;;27.10;61.20;;;;;;4996030;28;20022;-70
2022/01/14 00:44:10;;;;;;;3.90;1.77;;;27.10;61.30;;;;;;4993388;28;20556;-70
2022/01/14 00:47:19;;;;;;;5.25;2.17;;;27.10;61.40;;;;;;4997476;28;20026;-76
2022/01/14 00:50:26;;;;;;;6.65;1.50;;;27.10;61.40;;;;;;4998356;28;20137;-71
2022/01/14 00:53:32;;;;;;;5.88;1.90;;;27.10;61.40;;;;;;5000125;28;20038;-71
2022/01/14 00:59:48;;;;;;;6.97;2.65;;;27.10;61.60;;;;;;4995391;28;20049;-76
2022/01/14 01:02:54;;;;;;;5.50;1.90;;;27.10;61.60;;;;;;4998007;28;20041;-70
2022/01/14 01:06:00;;;;;;;6.70;2.13;;;27.10;61.70;;;;;;4997570;28;20036;-71
2022/01/14 01:09:12;;;;;;;12.48;3.22;;;27.10;61.80;;;;;;4994859;28;20587;-71
2022/01/14 01:12:35;;;;;;;7.68;2.40;;;27.00;61.70;;;;;;4996806;28;20029;-70
2022/01/14 01:15:41;;;;;;;7.22;2.22;;;27.00;61.80;;;;;;5000327;28;20032;-71
2022/01/14 01:18:47;;;;;;;7.95;2.58;;;27.00;61.80;;;;;;4994508;28;20403;-70
2022/01/14 01:21:53;;;;;;;7.25;2.63;;;26.90;61.80;;;;;;5001832;28;20100;-74
2022/01/14 01:24:59;;;;;;;11.93;3.50;;;26.90;61.80;;;;;;4994808;28;20080;-75
2022/01/14 01:28:05;;;;;;;7.63;2.25;;;26.90;61.90;;;;;;5003753;28;20368;-72
2022/01/14 01:31:35;;;;;;;4.75;2.25;;;26.90;62.00;;;;;;4998755;28;20516;-71
2022/01/14 01:34:38;;;;;;;4.38;1.70;;;26.90;62.00;;;;;;4994630;28;20066;-72
2022/01/14 01:37:45;;;;;;;6.18;1.88;;;26.90;62.00;;;;;;4999833;28;20033;-70
2022/01/14 01:40:53;;;;;;;9.90;2.08;;;26.80;62.00;;;;;;5000414;28;20385;-74
2022/01/14 01:43:59;;;;;;;7.20;2.75;;;26.80;62.10;;;;;;4998388;28;20042;-70
2022/01/14 01:47:05;;;;;;;5.28;2.50;;;26.80;62.20;;;;;;5000126;28;20026;-71
2022/01/14 01:50:14;;;;;;;6.07;2.45;;;26.70;62.10;;;;;;4980243;28;20386;-72
2022/01/14 01:53:21;;;;;;;6.20;2.10;;;26.80;62.30;;;;;;5003757;28;20038;-71
2022/01/14 01:56:27;;;;;;;6.53;2.00;;;26.80;62.30;;;;;;5000160;28;20076;-71
2022/01/14 01:59:33;;;;;;;7.28;1.88;;;26.70;62.50;;;;;;4999371;28;20025;-71
2022/01/14 02:02:39;;;;;;;3.67;1.52;;;26.70;62.50;;;;;;4998346;28;20053;-70
2022/01/14 02:05:46;;;;;;;5.57;1.70;;;26.70;62.60;;;;;;4995252;28;20061;-71
2022/01/14 02:08:52;;;;;;;7.50;2.53;;;26.70;62.70;;;;;;4996575;28;20161;-71
2022/01/14 02:11:58;;;;;;;7.75;1.80;;;26.60;62.60;;;;;;4997565;28;20034;-71
2022/01/14 02:15:11;;;;;;;5.75;1.70;;;26.70;62.80;;;;;;5002447;28;20105;-70
2022/01/14 02:25:07;;;;;;;9.10;3.05;;;26.60;62.80;;;;;;5000807;28;20176;-71
2022/01/14 02:28:13;;;;;;;4.50;2.03;;;26.60;62.90;;;;;;4996190;28;20026;-70
2022/01/14 02:31:21;;;;;;;7.97;2.35;;;26.60;62.90;;;;;;4997840;28;20030;-70
2022/01/14 02:34:28;;;;;;;7.25;2.53;;;26.60;63.00;;;;;;4999227;28;20524;-70
2022/01/14 02:37:34;;;;;;;6.95;2.53;;;26.50;62.90;;;;;;5003080;28;20124;-70
2022/01/14 02:40:40;;;;;;;6.55;2.30;;;26.50;63.00;;;;;;5000749;28;20035;-72
2022/01/14 02:43:48;;;;;;;12.68;3.42;;;26.50;63.10;;;;;;5003432;28;20038;-73
2022/01/14 02:46:57;;;;;;;10.00;2.00;;;26.50;63.30;;;;;;4999137;28;20069;-71
2022/01/14 02:50:03;;;;;;;6.00;1.70;;;26.50;63.40;;;;;;5001239;28;20488;-71
2022/01/14 02:56:44;;;;;;;5.88;2.20;;;26.50;63.50;;;;;;4947835;28;20126;-77
2022/01/14 02:59:50;;;;;;;10.10;2.15;;;26.40;63.60;;;;;;4997181;28;20076;-71
2022/01/14 03:02:56;;;;;;;6.93;2.30;;;26.40;63.60;;;;;;4993387;28;20053;-71
2022/01/14 03:06:02;;;;;;;3.47;1.88;;;26.40;63.70;;;;;;5000964;28;20026;-74
2022/01/14 03:09:08;;;;;;;4.97;1.98;;;26.40;63.80;;;;;;4999312;28;20031;-70
2022/01/14 03:12:17;;;;;;;5.00;2.92;;;26.40;63.90;;;;;;4999829;28;20121;-71
2022/01/14 03:15:23;;;;;;;3.60;1.80;;;26.40;63.90;;;;;;4997534;28;20049;-72
2022/01/14 03:18:39;;;;;;;5.35;2.00;;;26.40;64.00;;;;;;5000162;28;20098;-74
2022/01/14 03:21:45;;;;;;;9.10;2.30;;;26.40;64.00;;;;;;5002111;28;20104;-70
2022/01/14 03:27:57;;;;;;;5.90;2.65;;;26.30;64.10;;;;;;4996506;28;20466;-78
2022/01/14 03:31:04;;;;;;;4.57;2.20;;;26.30;64.20;;;;;;4996105;28;20021;-70
2022/01/14 03:34:10;;;;;;;4.28;2.05;;;26.30;64.10;;;;;;4998862;28;20025;-70
2022/01/14 03:37:16;;;;;;;3.05;1.75;;;26.30;64.10;;;;;;4997807;28;20725;-75
2022/01/14 03:40:22;;;;;;;5.60;2.10;;;26.30;64.20;;;;;;4994979;28;20057;-70
2022/01/14 03:43:28;;;;;;;5.38;1.95;;;26.30;64.20;;;;;;4994089;28;20034;-70
2022/01/14 03:46:34;;;;;;;9.52;2.10;;;26.20;64.10;;;;;;4998115;28;20057;-71
2022/01/14 03:49:40;;;;;;;7.30;2.25;;;26.20;64.30;;;;;;5000088;28;20021;-70
2022/01/14 03:52:46;;;;;;;15.60;2.63;;;26.20;64.30;;;;;;4999315;28;20038;-78
2022/01/14 03:55:52;;;;;;;12.07;2.65;;;26.20;64.40;;;;;;5000628;28;20032;-71
2022/01/14 03:58:59;;;;;;;13.25;3.08;;;26.20;64.60;;;;;;5000447;28;20022;-73
2022/01/14 04:02:05;;;;;;;6.07;2.38;;;26.20;64.80;;;;;;4994766;28;20026;-77
2022/01/14 04:05:11;;;;;;;3.83;1.65;;;26.10;65.30;;;;;;4993081;28;20045;-74
2022/01/14 04:08:17;;;;;;;17.38;2.90;;;25.80;66.00;;;;;;4992929;28;20095;-72
2022/01/14 04:11:03;;;;;;;;;;;25.80;66.30;;;;;;5000772;28;20037;-73
2022/01/14 04:17:31;;;;;;;34.83;13.05;;;25.90;66.50;;;;;;4992131;28;20477;-74
2022/01/14 04:20:22;;;;;;;;;;;25.90;66.20;;;;;;4995587;28;20027;-73
2022/01/14 04:23:31;;;;;;;48.90;6.63;;;25.90;66.00;;;;;;4983936;28;19946;-70
2022/01/14 04:26:17;;;;;;;;;;;26.00;66.20;;;;;;4987769;28;20037;-72
2022/01/14 04:29:03;;;;;;;;;;;25.90;66.10;;;;;;4990158;28;20316;-76
2022/01/14 04:32:09;;;;;;;25.77;13.18;;;25.90;66.30;;;;;;4982344;28;19929;-73
2022/01/14 04:35:15;;;;;;;23.20;13.10;;;26.00;66.30;;;;;;4986780;28;20030;-76
2022/01/14 04:38:21;;;;;;;20.45;8.73;;;26.00;66.40;;;;;;4988346;28;20041;-78
2022/01/14 04:41:09;;;;;;;;;;;26.00;66.40;;;;;;4985761;28;20605;-73
2022/01/14 04:44:15;;;;;;;37.78;4.95;;;26.00;66.30;;;;;;4989502;28;19925;-71
2022/01/14 04:47:13;;;;;;;;;;;26.10;66.90;;;;;;4988143;28;20026;-71
2022/01/14 04:50:19;;;;;;;30.45;10.80;;;26.00;67.00;;;;;;4985548;28;19914;-77
2022/01/14 04:53:05;;;;;;;;;;;26.00;67.50;;;;;;4996052;28;20041;-72
2022/01/14 04:55:32;;;;;;;26.98;11.18;;;26.00;66.90;;;;;;4994281;28;19914;-73
2022/01/14 04:57:58;;;;;;;15.15;7.50;;;26.10;66.80;;;;;;5000136;28;20029;-73
2022/01/14 05:00:27;;;;;;;19.35;7.65;;;26.10;66.60;;;;;;4998235;28;20017;-73
2022/01/14 05:02:55;;;;;;;38.70;7.32;;;26.10;66.40;;;;;;5001614;28;20122;-73
2022/01/14 05:05:24;;;;;;;27.80;6.72;;;26.10;66.40;;;;;;5005499;28;20022;-72
2022/01/14 05:07:51;;;;;;;14.10;4.30;;;26.10;66.40;;;;;;5001139;28;20416;-72
2022/01/14 05:10:33;;;;;;;23.58;3.78;;;26.10;66.40;;;;;;5003178;28;20089;-73
2022/01/14 05:13:01;;;;;;;17.55;3.30;;;26.10;66.50;;;;;;5000475;28;20075;-73
2022/01/14 05:15:28;;;;;;;21.02;3.70;;;26.10;66.60;;;;;;5004692;28;20207;-72
2022/01/14 05:17:55;;;;;;;27.67;4.43;;;26.10;66.70;;;;;;4998809;28;20415;-73
2022/01/14 05:20:21;;;;;;;19.08;3.08;;;26.10;66.90;;;;;;5002191;28;20026;-77
2022/01/14 05:22:48;;;;;;;16.75;4.53;;;26.20;67.00;;;;;;4997753;28;20081;-72
2022/01/14 05:25:15;;;;;;;10.02;3.83;;;26.20;66.90;;;;;;5007463;28;20013;-71
2022/01/14 05:27:43;;;;;;;14.40;2.95;;;26.20;66.90;;;;;;5000720;28;20393;-73
2022/01/14 05:30:12;;;;;;;7.35;2.35;;;26.20;66.80;;;;;;4999418;28;20441;-73
2022/01/14 05:32:46;;;;;;;12.18;2.72;;;26.20;66.70;;;;;;4992694;28;20019;-73
2022/01/14 05:35:14;;;;;;;14.70;3.22;;;26.20;66.70;;;;;;4998210;28;20031;-72
2022/01/14 05:37:41;;;;;;;10.77;2.53;;;26.20;66.90;;;;;;5002814;28;20030;-74
2022/01/14 05:40:08;;;;;;;13.60;2.95;;;26.20;66.90;;;;;;5002016;28;20014;-73
2022/01/14 05:42:36;;;;;;;8.38;2.78;;;26.30;66.90;;;;;;4999913;28;20038;-73
2022/01/14 05:45:05;;;;;;;13.07;2.97;;;26.30;66.80;;;;;;5002690;28;20133;-72
2022/01/14 05:47:31;;;;;;;14.02;3.25;;;26.30;66.70;;;;;;4999411;28;20675;-72
2022/01/14 05:49:57;;;;;;;7.13;2.75;;;26.30;66.60;;;;;;5017077;28;20069;-72
2022/01/14 05:52:24;;;;;;;7.75;2.38;;;26.30;66.50;;;;;;5000874;28;20517;-72
2022/01/14 05:54:53;;;;;;;23.55;4.18;;;26.40;66.50;;;;;;4999096;28;20036;-73
2022/01/14 05:57:20;;;;;;;25.50;5.03;;;26.40;66.40;;;;;;5000644;28;20026;-72
2022/01/14 05:59:48;;;;;;;26.27;3.92;;;26.40;66.40;;;;;;5002618;28;20808;-72
2022/01/14 06:02:16;;;;;;;28.10;4.53;;;26.40;66.30;;;;;;5002023;28;20038;-72
2022/01/14 06:04:43;;;;;;;19.35;3.10;;;26.50;66.40;;;;;;5003052;28;20037;-74
2022/01/14 06:07:13;;;;;;;20.05;3.97;;;26.50;66.30;;;;;;5000436;28;20288;-72
2022/01/14 06:09:39;;;;;;;17.67;3.08;;;26.50;66.60;;;;;;5001682;28;20050;-73
2022/01/14 06:12:06;;;;;;;11.68;3.63;;;26.60;66.20;;;;;;5003299;28;20024;-72
2022/01/14 06:14:32;;;;;;;13.38;2.50;;;26.60;66.00;;;;;;4994756;28;20477;-72
2022/01/14 06:16:59;;;;;;;9.30;2.10;;;26.70;65.90;;;;;;5001320;28;20556;-72
2022/01/14 06:19:27;;;;;;;19.25;3.40;;;26.70;65.80;;;;;;5000508;28;20018;-72
2022/01/14 06:21:54;;;;;;;22.58;4.32;;;26.70;66.20;;;;;;5000831;28;20033;-72
2022/01/14 06:24:20;;;;;;;16.65;3.47;;;26.80;66.30;;;;;;4998238;28;20026;-72
2022/01/14 06:26:47;;;;;;;20.02;3.45;;;26.80;66.10;;;;;;5037741;28;20386;-72
2022/01/14 06:29:13;;;;;;;28.00;3.85;;;26.80;65.90;;;;;;4998010;28;20029;-72
2022/01/14 06:31:39;;;;;;;35.13;4.43;;;26.90;65.80;;;;;;4999863;28;20025;-72
2022/01/14 06:34:06;;;;;;;30.50;4.70;;;26.90;65.70;;;;;;5001968;28;20026;-72
2022/01/14 06:36:32;;;;;;;26.35;3.78;;;27.00;65.70;;;;;;5014238;28;20552;-72
2022/01/14 06:38:59;;;;;;;28.33;6.20;;;27.00;65.70;;;;;;4999480;28;20022;-72
2022/01/14 06:41:25;;;;;;;55.53;7.82;;;27.00;65.50;;;;;;5000863;28;20022;-72
2022/01/14 06:43:52;;;;;;;65.88;8.27;;;27.10;65.50;;;;;;5005462;28;20046;-72
2022/01/14 06:46:18;;;;;;;52.22;8.07;;;27.10;65.40;;;;;;5000908;28;20018;-72
2022/01/14 06:48:45;;;;;;;55.55;6.45;;;27.20;65.20;;;;;;5002070;28;20033;-72
2022/01/14 06:51:15;;;;;;;53.85;6.50;;;27.20;65.10;;;;;;4997773;28;20106;-72
2022/01/14 06:53:42;;;;;;;30.92;5.45;;;27.30;64.90;;;;;;4999968;28;20018;-73
2022/01/14 06:56:14;;;;;;;12.35;3.67;;;27.30;64.70;;;;;;4998564;28;20045;-72
2022/01/14 06:58:41;;;;;;;10.57;3.25;;;27.30;64.40;;;;;;5002177;28;20428;-73
2022/01/14 07:01:07;;;;;;;8.13;2.58;;;27.40;64.20;;;;;;4998099;28;20380;-73
2022/01/14 07:03:34;;;;;;;16.02;2.80;;;27.40;64.00;;;;;;4996409;28;20120;-72
2022/01/14 07:06:01;;;;;;;30.77;4.63;;;27.40;63.60;;;;;;4998199;28;20053;-72
2022/01/14 07:09:07;;;;;;;33.53;3.78;;;27.50;63.80;;;;;;4997509;28;20037;-73
2022/01/14 07:12:13;;;;;;;27.00;4.32;;;27.60;63.80;;;;;;4998157;28;20106;-72
2022/01/14 07:15:21;;;;;;;13.60;2.97;;;27.60;63.50;;;;;;4999624;28;20036;-72
2022/01/14 07:18:27;;;;;;;12.98;2.90;;;27.70;63.60;;;;;;4997662;28;20041;-72
2022/01/14 07:21:34;;;;;;;8.35;2.67;;;27.80;63.40;;;;;;5003367;28;20025;-72
2022/01/14 07:24:40;;;;;;;7.80;3.65;;;27.90;63.20;;;;;;4994049;28;20033;-72
2022/01/14 07:27:46;;;;;;;6.85;2.95;;;27.90;63.10;;;;;;5000430;28;20419;-72
2022/01/14 07:30:52;;;;;;;6.68;2.53;;;28.00;63.10;;;;;;4999510;28;20026;-72
2022/01/14 07:33:58;;;;;;;6.85;1.92;;;28.10;62.60;;;;;;4993190;28;20651;-72
2022/01/14 07:37:04;;;;;;;9.52;3.30;;;28.20;62.50;;;;;;4997878;28;20069;-73
2022/01/14 07:40:10;;;;;;;3.88;2.60;;;28.20;62.40;;;;;;5000744;28;20030;-73
2022/01/14 07:43:19;;;;;;;6.25;2.55;;;28.30;62.10;;;;;;5010420;28;20049;-73
2022/01/14 07:46:25;;;;;;;5.80;2.30;;;28.40;62.00;;;;;;4998865;28;20023;-73
2022/01/14 07:49:31;;;;;;;5.05;2.25;;;28.50;61.80;;;;;;4996788;28;20030;-73
2022/01/14 07:52:37;;;;;;;7.28;2.47;;;28.50;61.60;;;;;;4998921;28;20105;-73
2022/01/14 07:55:43;;;;;;;15.55;3.13;;;28.60;61.30;;;;;;4987676;28;20415;-72
2022/01/14 07:58:49;;;;;;;9.10;2.45;;;28.70;60.90;;;;;;5000166;28;20392;-72
2022/01/14 08:01:55;;;;;;;5.80;3.90;;;28.80;60.70;;;;;;4999319;28;20018;-73
2022/01/14 08:05:02;;;;;;;13.40;3.10;;;28.80;60.50;;;;;;4982094;28;20529;-73
2022/01/14 08:08:08;;;;;;;18.92;3.95;;;28.90;60.10;;;;;;4992019;28;20937;-73
2022/01/14 08:11:14;;;;;;;12.15;2.80;;;29.00;59.60;;;;;;4997851;28;20018;-73
2022/01/14 08:14:20;;;;;;;14.30;3.63;;;29.10;59.40;;;;;;4994819;28;20031;-73
2022/01/14 08:17:26;;;;;;;28.73;3.78;;;29.20;59.30;;;;;;4997750;28;20393;-73
2022/01/14 08:20:32;;;;;;;8.18;2.75;;;29.30;59.20;;;;;;4998539;28;20421;-75
2022/01/14 08:23:39;;;;;;;7.68;3.30;;;29.40;59.20;;;;;;4997540;28;20037;-74
2022/01/14 08:26:45;;;;;;;7.90;3.17;;;29.40;58.80;;;;;;4994540;28;20356;-73
2022/01/14 08:29:51;;;;;;;8.50;2.40;;;29.60;58.70;;;;;;5000413;28;20022;-73
2022/01/14 08:32:57;;;;;;;11.05;2.10;;;29.70;58.50;;;;;;4999435;28;20022;-74
2022/01/14 08:36:03;;;;;;;4.97;2.47;;;29.80;58.10;;;;;;5001261;28;20113;-73
2022/01/14 08:39:09;;;;;;;5.53;1.98;;;29.80;57.90;;;;;;4999720;28;20065;-73
2022/01/14 08:42:15;;;;;;;8.63;2.75;;;29.90;57.80;;;;;;5000632;28;20036;-73
2022/01/14 08:45:21;;;;;;;7.00;2.08;;;30.00;57.70;;;;;;5008187;28;20041;-73
2022/01/14 08:48:27;;;;;;;5.07;2.85;;;30.10;57.30;;;;;;5000091;28;20042;-73
2022/01/14 08:51:34;;;;;;;6.88;2.13;;;30.20;57.00;;;;;;5001921;28;20054;-74
2022/01/14 08:54:40;;;;;;;15.20;3.10;;;30.30;56.60;;;;;;4996294;28;20470;-72
2022/01/14 08:57:46;;;;;;;8.73;2.97;;;30.40;57.10;;;;;;5001461;28;20036;-72
2022/01/14 09:00:52;;;;;;;25.23;3.90;;;30.40;57.50;;;;;;5002406;28;20029;-73
2022/01/14 09:03:58;;;;;;;14.90;4.30;;;30.40;57.00;;;;;;5011516;28;20543;-73
2022/01/14 09:07:04;;;;;;;11.30;3.42;;;30.40;56.90;;;;;;5000257;28;20058;-73
2022/01/14 09:10:10;;;;;;;9.95;3.47;;;30.30;56.70;;;;;;4996070;28;20081;-73
2022/01/14 09:13:17;;;;;;;9.68;3.05;;;30.30;56.60;;;;;;5003220;28;20023;-73
2022/01/14 09:16:23;;;;;;;20.73;3.75;;;30.20;56.90;;;;;;5017248;28;20065;-73
2022/01/14 09:19:29;;;;;;;12.32;2.92;;;30.10;57.20;;;;;;5005695;28;20022;-73
2022/01/14 09:22:36;;;;;;;9.48;2.90;;;30.10;57.50;;;;;;5001170;28;20156;-73
2022/01/14 09:25:42;;;;;;;9.00;3.20;;;30.10;57.70;;;;;;5001560;28;20030;-73
2022/01/14 09:28:48;;;;;;;6.28;3.28;;;30.10;57.70;;;;;;5001122;28;20030;-73
2022/01/14 09:31:54;;;;;;;9.40;3.35;;;30.00;57.70;;;;;;5002790;28;20485;-73
2022/01/14 09:35:04;;;;;;;15.55;3.65;;;30.00;57.70;;;;;;4999556;28;20050;-73
2022/01/14 09:38:10;;;;;;;8.00;3.75;;;30.10;57.70;;;;;;5001845;28;20152;-73
2022/01/14 09:41:17;;;;;;;8.85;2.88;;;30.10;57.40;;;;;;4998755;28;20030;-73
2022/01/14 09:44:23;;;;;;;11.15;4.13;;;30.10;57.30;;;;;;5004238;28;20030;-74
2022/01/14 09:47:29;;;;;;;9.27;3.95;;;30.10;57.00;;;;;;4998345;28;20026;-73
2022/01/14 09:50:36;;;;;;;28.42;5.10;;;30.10;57.10;;;;;;5000759;28;20022;-73
2022/01/14 09:53:42;;;;;;;13.27;3.55;;;30.10;57.00;;;;;;5003085;28;20153;-73
2022/01/14 09:56:48;;;;;;;40.47;7.63;;;30.10;56.70;;;;;;5003816;28;20018;-73
2022/01/14 09:59:54;;;;;;;22.27;6.80;;;30.20;57.00;;;;;;5004533;28;20022;-73
2022/01/14 10:03:12;;;;;;;11.70;3.92;;;30.20;57.10;;;;;;5000449;28;20068;-73
2022/01/14 10:06:18;;;;;;;25.35;4.40;;;30.20;56.40;;;;;;4998247;28;20068;-73
2022/01/14 10:09:25;;;;;;;30.55;4.82;;;30.30;56.60;;;;;;5001448;28;20022;-73
2022/01/14 10:12:43;;;;;;;13.43;3.80;;;30.30;56.50;;;;;;5000280;28;20029;-73
2022/01/14 10:15:49;;;;;;;12.73;3.30;;;30.40;56.30;;;;;;4998453;28;20053;-73
2022/01/14 10:18:55;;;;;;;7.30;3.25;;;30.40;56.10;;;;;;4997497;28;20022;-73
2022/01/14 10:22:01;;;;;;;8.10;4.00;;;30.50;56.20;;;;;;4993724;28;20025;-73
2022/01/14 10:25:16;;;;;;;7.32;3.03;;;30.50;56.00;;;;;;5002621;28;20080;-73
2022/01/14 10:28:22;;;;;;;9.27;3.72;;;30.50;56.00;;;;;;4999938;28;20080;-73
2022/01/14 10:31:28;;;;;;;10.10;3.50;;;30.60;55.80;;;;;;4998252;28;20056;-73
2022/01/14 10:34:34;;;;;;;17.42;3.83;;;30.60;55.70;;;;;;5001988;28;20018;-72
2022/01/14 10:37:47;;;;;;;10.23;3.90;;;30.70;55.80;;;;;;4997635;28;20027;-74
2022/01/14 10:40:53;;;;;;;8.23;3.38;;;30.70;55.80;;;;;;5000034;28;20022;-73
2022/01/14 10:43:59;;;;;;;9.63;3.45;;;30.80;55.80;;;;;;5000821;28;20901;-79
2022/01/14 10:47:05;;;;;;;11.15;3.00;;;30.80;56.10;;;;;;5002145;28;20014;-72
2022/01/14 10:50:14;;;;;;;6.93;2.97;;;30.90;55.30;;;;;;4996268;28;20032;-73
2022/01/14 10:53:20;;;;;;;12.55;3.05;;;30.90;54.90;;;;;;4999321;28;20362;-73
2022/01/14 10:56:32;;;;;;;9.30;3.13;;;31.00;54.80;;;;;;4994270;28;20129;-73
2022/01/14 10:59:38;;;;;;;19.63;4.25;;;31.00;54.90;;;;;;5001165;28;20048;-73
2022/01/14 11:02:52;;;;;;;10.05;3.78;;;31.00;54.70;;;;;;5000599;28;20125;-73
2022/01/14 11:05:58;;;;;;;9.82;3.60;;;31.10;54.70;;;;;;5000250;28;20034;-75
2022/01/14 11:09:04;;;;;;;11.68;3.97;;;31.10;54.50;;;;;;5001762;28;20576;-73
2022/01/14 11:12:10;;;;;;;10.98;4.10;;;31.10;54.80;;;;;;4996881;28;20022;-79
2022/01/14 11:15:16;;;;;;;12.40;3.70;;;31.10;54.80;;;;;;4997712;28;20018;-74
2022/01/14 11:18:22;;;;;;;54.85;6.95;;;31.20;55.00;;;;;;4995678;28;20405;-74
2022/01/14 11:24:53;;;;;;;16.40;4.32;;;31.30;54.80;;;;;;4999566;28;20041;-73
2022/01/14 11:27:59;;;;;;;13.88;4.90;;;31.40;54.60;;;;;;4995955;28;20575;-75
2022/01/14 11:31:11;;;;;;;21.20;4.47;;;31.40;54.60;;;;;;4998675;28;20426;-74
2022/01/14 11:34:17;;;;;;;15.60;3.95;;;31.40;54.60;;;;;;4997465;28;20050;-74
2022/01/14 11:37:29;;;;;;;8.82;3.53;;;31.50;54.30;;;;;;4998160;28;20407;-73
2022/01/14 11:40:35;;;;;;;36.53;5.57;;;31.50;54.00;;;;;;4997451;28;20026;-73
2022/01/14 11:44:01;;;;;;;19.30;4.85;;;31.60;54.20;;;;;;5000182;28;20038;-73
2022/01/14 11:47:08;;;;;;;10.50;3.50;;;31.60;54.30;;;;;;4997418;28;20153;-73
2022/01/14 11:50:14;;;;;;;18.88;3.47;;;31.70;54.10;;;;;;4999428;28;20019;-75
2022/01/14 11:53:20;;;;;;;11.93;3.47;;;31.70;54.10;;;;;;4995657;28;20037;-75
2022/01/14 11:56:26;;;;;;;7.70;3.20;;;31.80;53.70;;;;;;4999436;28;20019;-76
2022/01/14 11:59:18;;;;;;;18.77;4.28;;;31.80;53.20;;;;;;4996641;28;20720;-75
2022/01/14 12:02:45;;;;;;;6.47;2.22;;;31.80;53.20;;;;;;4994718;28;20034;-74
2022/01/14 12:05:54;;;;;;;10.63;3.38;;;31.90;53.20;;;;;;4996898;28;20505;-74
2022/01/14 12:09:09;;;;;;;21.08;4.28;;;32.00;53.00;;;;;;5000129;28;20521;-73
2022/01/14 12:12:14;;;;;;;19.70;5.10;;;32.00;53.10;;;;;;4997727;28;20052;-73
2022/01/14 12:15:20;;;;;;;9.03;3.13;;;32.10;53.20;;;;;;4995467;28;20030;-74
2022/01/14 12:18:26;;;;;;;13.95;3.28;;;32.10;53.30;;;;;;4998726;28;20469;-73
2022/01/14 12:21:32;;;;;;;11.43;4.40;;;32.20;53.30;;;;;;4998196;28;20169;-73
2022/01/14 12:24:18;;;;;;;8.85;3.22;;;32.20;53.10;;;;;;4997679;28;20042;-73
2022/01/14 12:27:05;;;;;;;10.75;3.60;;;32.20;53.00;;;;;;4998082;28;20030;-74
2022/01/14 12:30:20;;;;;;;14.48;4.75;;;32.30;53.00;;;;;;4999907;28;20026;-74
2022/01/14 12:33:30;;;;;;;14.38;3.58;;;32.30;52.90;;;;;;4985412;28;20034;-71
2022/01/14 12:36:16;;;;;;;22.92;4.43;;;32.40;52.70;;;;;;4984260;28;20113;-72
2022/01/14 12:39:22;;;;;;;22.02;5.22;;;32.40;52.70;;;;;;4988427;28;20061;-72
2022/01/14 12:42:28;;;;;;;17.85;8.02;;;32.50;52.80;;;;;;4986654;28;20030;-71
2022/01/14 12:45:52;;;;;;;40.50;10.68;;;32.50;52.80;;;;;;4987816;28;20073;-71
2022/01/14 12:48:58;;;;;;;30.85;6.90;;;32.60;53.00;;;;;;4982092;28;20025;-71
2022/01/14 12:52:04;;;;;;;18.33;6.20;;;32.60;52.80;;;;;;4985653;28;20034;-73
2022/01/14 12:55:12;;;;;;;14.65;5.00;;;32.60;53.40;;;;;;4986328;28;20025;-72
2022/01/14 12:58:18;;;;;;;12.93;4.63;;;32.60;52.50;;;;;;4984570;28;20045;-71
2022/01/14 13:01:26;;;;;;;8.93;3.65;;;32.70;51.60;;;;;;4989108;28;20022;-71
2022/01/14 13:04:36;;;;;;;10.38;3.65;;;32.80;51.60;;;;;;4983837;28;20109;-70
2022/01/14 13:07:04;;;;;;;9.65;4.03;;;32.80;51.70;;;;;;4981416;28;20043;-71
2022/01/14 13:09:39;;;;;;;17.05;7.13;;;32.80;51.80;;;;;;4989415;28;20050;-73
2022/01/14 13:12:17;;;;;;;25.70;9.23;;;32.70;52.00;;;;;;4985675;28;20497;-73
2022/01/14 13:14:49;;;;;;;16.92;8.00;;;32.60;52.50;;;;;;4984683;28;20402;-70
2022/01/14 13:17:26;;;;;;;20.23;5.80;;;32.60;53.30;;;;;;4988072;28;20031;-72
2022/01/14 13:20:13;;;;;;;14.30;5.38;;;32.50;52.90;;;;;;4985148;28;20026;-74
2022/01/14 13:22:42;;;;;;;12.40;4.80;;;32.50;52.70;;;;;;4985571;28;20033;-72
2022/01/14 13:25:13;;;;;;;16.70;5.20;;;32.40;52.80;;;;;;4991430;28;20037;-72
2022/01/14 13:27:44;;;;;;;12.82;3.63;;;32.30;52.70;;;;;;4982909;28;20041;-72
2022/01/14 13:30:24;;;;;;;13.73;5.00;;;32.40;52.90;;;;;;5005014;28;20096;-71
2022/01/14 13:32:56;;;;;;;58.88;8.23;;;32.30;52.90;;;;;;4990349;28;20505;-73
2022/01/14 13:35:33;;;;;;;49.65;14.85;;;32.30;53.50;;;;;;4992612;28;20109;-72
2022/01/14 13:38:11;;;;;;;42.25;14.90;;;32.20;53.40;;;;;;4988186;28;20081;-71
2022/01/14 13:40:53;;;;;;;14.82;7.80;;;32.20;53.70;;;;;;4996006;28;20097;-72
2022/01/14 13:43:23;;;;;;;17.05;5.57;;;32.10;53.40;;;;;;4997562;28;20117;-72
2022/01/14 13:46:03;;;;;;;29.98;5.18;;;32.10;53.30;;;;;;5000480;28;20542;-72
2022/01/14 13:48:40;;;;;;;9.25;3.97;;;32.10;53.40;;;;;;5001219;28;20022;-71
2022/01/14 13:51:09;;;;;;;13.52;3.63;;;32.00;53.40;;;;;;5000819;28;20136;-74
2022/01/14 13:53:45;;;;;;;10.80;4.18;;;32.00;53.40;;;;;;4999355;28;20014;-72
2022/01/14 13:56:17;;;;;;;16.30;4.60;;;31.90;53.40;;;;;;4995195;28;20113;-71
2022/01/14 13:58:50;;;;;;;11.27;3.97;;;31.90;53.50;;;;;;5004748;28;20010;-71
2022/01/14 14:01:17;;;;;;;8.80;4.22;;;31.90;53.50;;;;;;5002055;28;20029;-72
2022/01/14 14:03:54;;;;;;;9.93;3.78;;;31.90;53.60;;;;;;5002684;28;20037;-72
2022/01/14 14:06:31;;;;;;;9.27;3.30;;;31.90;53.50;;;;;;4999406;28;20022;-72
2022/01/14 14:12:22;;;;;;;9.13;4.25;;;31.80;53.40;;;;;;4999741;28;20068;-71
2022/01/14 14:15:44;;;;;;;29.90;5.90;;;31.90;53.30;;;;;;5003572;28;20362;-70
2022/01/14 14:18:50;;;;;;;36.90;5.53;;;31.90;53.70;;;;;;4996887;28;20080;-79
2022/01/14 14:21:56;;;;;;;44.65;11.15;;;31.70;53.70;;;;;;5000720;28;20580;-72
2022/01/14 14:25:03;;;;;;;16.48;5.70;;;31.60;54.20;;;;;;5001122;28;20458;-73
2022/01/14 14:27:52;;;;;;;34.25;7.90;;;31.70;54.30;;;;;;4996583;28;20508;-73
2022/01/14 14:31:01;;;;;;;22.75;5.95;;;31.70;54.30;;;;;;5003358;28;20062;-72
2022/01/14 14:34:07;;;;;;;35.53;6.63;;;31.60;54.40;;;;;;4995802;28;20027;-71
2022/01/14 14:37:13;;;;;;;40.90;6.78;;;31.60;54.80;;;;;;4996251;28;20033;-75
2022/01/14 14:40:21;;;;;;;40.33;7.20;;;31.60;55.00;;;;;;5004087;28;20033;-69
2022/01/14 14:42:48;;;;;;;44.47;8.25;;;31.60;54.70;;;;;;5000608;28;20075;-71
2022/01/14 14:45:16;;;;;;;42.53;6.82;;;31.60;54.70;;;;;;5000920;28;20630;-70
2022/01/14 14:47:42;;;;;;;44.22;7.72;;;31.60;54.80;;;;;;4997809;28;20014;-69
2022/01/14 14:50:11;;;;;;;34.08;5.65;;;31.60;54.90;;;;;;4999073;28;20037;-71
2022/01/14 14:52:38;;;;;;;25.88;4.80;;;31.70;54.70;;;;;;5001806;28;20030;-72
2022/01/14 14:55:07;;;;;;;20.80;5.05;;;31.70;54.60;;;;;;5000724;28;20405;-71
2022/01/14 14:57:33;;;;;;;47.80;13.52;;;31.70;54.60;;;;;;4998110;28;20502;-73
2022/01/14 15:00:00;;;;;;;22.10;7.55;;;31.70;54.70;;;;;;5003209;28;20053;-70
2022/01/14 15:02:27;;;;;;;22.83;7.55;;;31.70;54.50;;;;;;5004965;28;20456;-74
2022/01/14 15:04:55;;;;;;;32.13;6.95;;;31.70;54.40;;;;;;4999189;28;20061;-68
2022/01/14 15:07:21;;;;;;;14.18;3.95;;;31.70;54.40;;;;;;5017600;28;20030;-83
2022/01/14 15:09:48;;;;;;;11.30;4.00;;;31.70;53.80;;;;;;5004831;28;20050;-71
2022/01/14 15:12:15;;;;;;;13.10;6.55;;;31.70;53.50;;;;;;5001785;28;20025;-71
2022/01/14 15:14:47;;;;;;;17.55;10.93;;;31.70;53.50;;;;;;5003296;28;20023;-68
2022/01/14 15:19:53;;;;;;;13.23;6.25;;;31.60;53.30;;;;;;5004255;28;20034;-74
2022/01/14 15:22:20;;;;;;;18.55;4.93;;;31.60;53.40;;;;;;5001004;28;20057;-72
2022/01/14 15:24:48;;;;;;;16.13;7.13;;;31.60;53.50;;;;;;5001701;28;20060;-70
2022/01/14 15:27:15;;;;;;;11.48;5.47;;;31.60;53.50;;;;;;5002764;28;20076;-71
2022/01/14 15:29:42;;;;;;;11.50;5.15;;;31.60;53.40;;;;;;4998637;28;20030;-71
2022/01/14 15:32:09;;;;;;;12.82;3.55;;;31.50;53.30;;;;;;4998230;28;20033;-70
2022/01/14 15:34:36;;;;;;;14.05;4.28;;;31.50;53.10;;;;;;4996155;28;20029;-71
2022/01/14 15:37:04;;;;;;;17.23;4.70;;;31.50;53.80;;;;;;4998858;28;20034;-71
2022/01/14 15:39:31;;;;;;;20.55;6.32;;;31.50;54.10;;;;;;5031127;28;20030;-70
2022/01/14 15:41:57;;;;;;;15.65;4.07;;;31.40;53.90;;;;;;5001152;28;20586;-71